Terminal Aerodrome Forecast
Issued by NWS Sioux Falls, SD

Home | Current Version | Previous Version | Graphics & Text | Print | Product List | Glossary Off
Versions: 1 2 3 4 5 6 7 8 9 10 11 12 13 14 15 16 17 18 19 20 21 22 23 24 25 26 27 28 29

000
FTUS43 KFSD 272300
TAFFSD
TAF
KFSD 272330Z 2800/2824 15008KT P6SM BKN025 BKN060
     FM280800 13006KT 5SM -TSRA BKN010CB
     FM281300 11008KT 6SM -RA BR OVC006
     FM282000 03007KT P6SM BKN010=

USA.gov is the U.S. government's official web portal to all federal, state and local government web resources and services.